createdAt,value
2022-09-24T00:01:30.883Z,10.47
2022-09-24T00:04:02.320Z,10.46
2022-09-24T00:06:33.658Z,10.45
2022-09-24T00:09:00.208Z,10.51
2022-09-24T00:11:28.758Z,10.25
2022-09-24T00:13:56.846Z,10.17
2022-09-24T00:16:28.614Z,10.31
2022-09-24T00:18:55.648Z,10.34
2022-09-24T00:21:26.447Z,10.15
2022-09-24T00:23:58.723Z,10.22
2022-09-24T00:26:44.555Z,10.17
2022-09-24T00:29:13.867Z,10.08
2022-09-24T00:31:40.708Z,9.97
2022-09-24T00:34:07.546Z,10.04
2022-09-24T00:36:34.178Z,10.24
2022-09-24T00:39:01.203Z,10.26
2022-09-24T00:41:31.399Z,10.32
2022-09-24T00:43:58.760Z,10.36
2022-09-24T00:46:42.639Z,10.38
2022-09-24T00:49:14.882Z,10.33
2022-09-24T00:51:43.999Z,10.26
2022-09-24T00:54:16.231Z,10.15
2022-09-24T00:56:44.579Z,9.79
2022-09-24T00:59:17.319Z,9.67
2022-09-24T01:01:48.244Z,9.61
2022-09-24T01:04:17.587Z,9.59
2022-09-24T01:06:44.367Z,9.62
2022-09-24T01:09:11.203Z,9.55
2022-09-24T01:12:06.441Z,9.68
2022-09-24T01:14:54.635Z,9.80
2022-09-24T01:17:45.493Z,9.81
2022-09-24T01:20:33.077Z,9.82
2022-09-24T01:23:11.218Z,9.86
2022-09-24T01:25:46.482Z,9.87
2022-09-24T01:28:22.155Z,9.82
2022-09-24T01:30:55.424Z,9.53
2022-09-24T01:33:25.793Z,9.39
2022-09-24T01:35:57.298Z,9.58
2022-09-24T01:38:38.682Z,9.37
2022-09-24T01:41:07.933Z,9.12
2022-09-24T01:43:34.725Z,9.21
2022-09-24T01:46:06.065Z,9.18
2022-09-24T01:48:37.442Z,9.43
2022-09-24T01:51:27.362Z,9.27
2022-09-24T01:53:58.809Z,9.20
2022-09-24T01:56:48.458Z,9.10
2022-09-24T01:59:24.563Z,9.00
2022-09-24T02:02:01.117Z,9.16
2022-09-24T02:04:30.219Z,9.09
2022-09-24T02:07:00.576Z,8.96
2022-09-24T02:09:36.178Z,8.96
2022-09-24T02:12:12.420Z,8.93
2022-09-24T02:15:08.089Z,8.78
2022-09-24T02:17:37.560Z,8.75
2022-09-24T02:20:10.733Z,8.75
2022-09-24T02:22:39.124Z,8.87
2022-09-24T02:25:08.963Z,9.03
2022-09-24T02:27:36.077Z,9.06
2022-09-24T02:30:02.917Z,9.11
2022-09-24T02:32:31.678Z,9.16
2022-09-24T02:35:02.800Z,9.20
2022-09-24T02:37:29.634Z,9.22
2022-09-24T02:39:56.523Z,9.15
2022-09-24T02:42:23.317Z,9.03
2022-09-24T02:44:50.028Z,9.20
2022-09-24T02:47:16.646Z,9.05
2022-09-24T02:49:43.265Z,8.79
2022-09-24T02:52:10.402Z,8.65
2022-09-24T02:54:37.096Z,8.71
2022-09-24T02:57:03.885Z,8.53
2022-09-24T02:59:30.433Z,8.40
2022-09-24T03:01:57.305Z,8.31
2022-09-24T03:04:24.189Z,8.41
2022-09-24T03:06:50.868Z,8.51
2022-09-24T03:09:17.510Z,8.51
2022-09-24T03:11:44.124Z,8.42
2022-09-24T03:14:10.874Z,8.33
2022-09-24T03:16:37.533Z,8.23
2022-09-24T03:19:04.141Z,8.07
2022-09-24T03:21:30.737Z,7.98
2022-09-24T03:23:57.625Z,7.99
2022-09-24T03:26:24.214Z,7.98
2022-09-24T03:28:50.810Z,8.02
2022-09-24T03:31:17.505Z,8.10
2022-09-24T03:33:46.758Z,8.09
2022-09-24T03:36:22.840Z,8.20
2022-09-24T03:38:51.876Z,8.32
2022-09-24T03:41:19.044Z,8.36
2022-09-24T03:43:45.628Z,8.45
2022-09-24T03:46:12.996Z,8.40
2022-09-24T03:48:40.945Z,8.44
2022-09-24T03:51:13.804Z,8.48
2022-09-24T03:53:40.734Z,8.43
2022-09-24T03:56:08.659Z,8.49
2022-09-24T03:58:38.014Z,8.57
2022-09-24T04:01:06.891Z,8.61
2022-09-24T04:03:33.480Z,8.63
2022-09-24T04:06:00.082Z,8.69
2022-09-24T04:08:26.637Z,8.73
2022-09-24T04:10:53.567Z,8.68
2022-09-24T04:13:20.303Z,8.72
2022-09-24T04:15:48.126Z,8.75
2022-09-24T04:18:14.950Z,8.75
2022-09-24T04:20:42.112Z,8.75
2022-09-24T04:23:09.604Z,8.84
2022-09-24T04:25:37.486Z,8.90
2022-09-24T04:28:06.838Z,8.95
2022-09-24T04:30:34.448Z,8.91
2022-09-24T04:33:02.609Z,8.87
2022-09-24T04:35:31.794Z,8.87
2022-09-24T04:37:59.496Z,8.78
2022-09-24T04:40:26.772Z,8.78
2022-09-24T04:42:53.703Z,8.53
2022-09-24T04:45:21.128Z,8.62
2022-09-24T04:47:53.643Z,8.50
2022-09-24T04:50:20.702Z,8.53
2022-09-24T04:52:53.082Z,8.57
2022-09-24T04:55:23.289Z,8.62
2022-09-24T04:57:51.205Z,8.67
2022-09-24T05:00:20.419Z,8.72
2022-09-24T05:02:47.288Z,8.49
2022-09-24T05:05:14.483Z,8.38
2022-09-24T05:07:42.759Z,8.19
2022-09-24T05:10:09.599Z,8.51
2022-09-24T05:12:36.603Z,8.31
2022-09-24T05:15:04.395Z,8.26
2022-09-24T05:17:31.200Z,8.28
2022-09-24T05:20:01.494Z,8.21
2022-09-24T05:22:28.252Z,8.08
2022-09-24T05:24:54.816Z,8.15
2022-09-24T05:27:21.815Z,8.35
2022-09-24T05:29:48.787Z,8.39
2022-09-24T05:32:17.947Z,8.28
2022-09-24T05:34:45.309Z,8.31
2022-09-24T05:37:12.930Z,8.46
2022-09-24T05:39:39.739Z,8.55
2022-09-24T05:42:07.530Z,8.59
2022-09-24T05:44:34.243Z,8.72
2022-09-24T05:47:00.940Z,8.84
2022-09-24T05:49:27.633Z,8.87
2022-09-24T05:51:54.286Z,8.97
2022-09-24T05:54:21.223Z,8.93
2022-09-24T05:56:47.854Z,9.01
2022-09-24T05:59:14.539Z,9.19
2022-09-24T06:01:41.355Z,9.18
2022-09-24T06:04:09.324Z,9.23
2022-09-24T06:06:36.122Z,9.21
2022-09-24T06:09:02.911Z,9.13
2022-09-24T06:11:39.192Z,9.18
2022-09-24T06:14:08.842Z,9.21
2022-09-24T06:16:36.157Z,8.96
2022-09-24T06:19:02.916Z,8.85
2022-09-24T06:21:29.758Z,9.02
2022-09-24T06:23:56.619Z,9.20
2022-09-24T06:26:23.327Z,9.38
2022-09-24T06:28:49.913Z,9.34
2022-09-24T06:31:16.621Z,9.37
2022-09-24T06:33:43.245Z,9.41
2022-09-24T06:36:10.341Z,9.51
2022-09-24T06:38:39.359Z,9.63
2022-09-24T06:41:06.643Z,9.95
2022-09-24T06:43:34.247Z,10.24
2022-09-24T06:46:00.985Z,10.03
2022-09-24T06:48:28.756Z,10.03
2022-09-24T06:50:56.526Z,10.39
2022-09-24T06:53:23.572Z,10.62
2022-09-24T06:55:50.258Z,11.43
2022-09-24T06:58:22.192Z,10.87
2022-09-24T07:00:59.857Z,10.80
2022-09-24T07:03:28.500Z,11.01
2022-09-24T07:05:55.865Z,11.66
2022-09-24T07:08:22.608Z,12.36
2022-09-24T07:10:49.351Z,12.02
2022-09-24T07:13:16.627Z,11.50
2022-09-24T07:15:44.337Z,11.48
2022-09-24T07:18:11.319Z,11.54
2022-09-24T07:20:37.948Z,11.51
2022-09-24T07:23:05.816Z,11.64
2022-09-24T07:25:33.209Z,11.60
2022-09-24T07:28:12.082Z,11.57
2022-09-24T07:30:40.105Z,11.84
2022-09-24T07:33:07.611Z,11.87
2022-09-24T07:35:34.535Z,12.00
2022-09-24T07:38:07.106Z,12.29
2022-09-24T07:40:34.235Z,12.14
2022-09-24T07:43:00.921Z,12.52
2022-09-24T07:45:29.840Z,12.40
2022-09-24T07:48:04.842Z,12.43
2022-09-24T07:50:34.272Z,12.38
2022-09-24T07:53:00.821Z,12.32
2022-09-24T07:55:27.455Z,12.93
2022-09-24T07:57:55.827Z,13.13
2022-09-24T08:00:24.920Z,13.62
2022-09-24T08:02:53.215Z,12.58
2022-09-24T08:05:19.844Z,12.88
2022-09-24T08:07:57.085Z,12.71
2022-09-24T08:10:25.619Z,12.79
2022-09-24T08:12:52.300Z,12.92
2022-09-24T08:15:19.623Z,13.67
2022-09-24T08:17:46.420Z,14.72
2022-09-24T08:20:13.098Z,13.77
2022-09-24T08:22:39.641Z,13.54
2022-09-24T08:25:06.699Z,13.98
2022-09-24T08:27:36.291Z,14.75
2022-09-24T08:30:04.706Z,13.61
2022-09-24T08:32:31.270Z,13.61
2022-09-24T08:34:57.815Z,13.91
2022-09-24T08:37:24.433Z,14.40
2022-09-24T08:39:50.982Z,13.80
2022-09-24T08:43:07.665Z,13.81
2022-09-24T08:46:02.359Z,14.37
2022-09-24T08:48:33.261Z,14.47
2022-09-24T08:51:03.317Z,14.78
2022-09-24T08:53:52.861Z,14.54
2022-09-24T08:56:25.426Z,15.63
2022-09-24T08:59:06.096Z,15.75
2022-09-24T09:01:48.318Z,17.07
2022-09-24T09:04:26.379Z,16.39
2022-09-24T09:07:06.417Z,16.95
2022-09-24T09:09:46.317Z,16.45
2022-09-24T09:12:18.797Z,15.92
2022-09-24T09:15:00.648Z,16.61
2022-09-24T09:17:48.156Z,16.39
2022-09-24T09:20:22.315Z,16.24
2022-09-24T09:22:51.373Z,17.32
2022-09-24T09:25:30.925Z,16.89
2022-09-24T09:28:04.847Z,16.11
2022-09-24T09:30:36.243Z,17.38
2022-09-24T09:33:23.062Z,16.85
2022-09-24T09:36:18.792Z,16.46
2022-09-24T09:39:04.778Z,16.67
2022-09-24T09:41:45.239Z,16.54
2022-09-24T09:44:17.808Z,16.27
2022-09-24T09:46:53.499Z,16.71
2022-09-24T09:49:20.484Z,16.27
2022-09-24T09:51:48.782Z,16.54
2022-09-24T09:54:15.370Z,17.08
2022-09-24T09:56:50.235Z,17.27
2022-09-24T09:59:19.661Z,17.36
2022-09-24T10:01:49.144Z,17.02
2022-09-24T10:04:29.162Z,17.71
2022-09-24T10:07:14.808Z,17.84
2022-09-24T10:09:42.691Z,17.97
2022-09-24T10:12:21.300Z,17.30
2022-09-24T10:14:59.335Z,17.23
2022-09-24T10:17:30.378Z,17.80
2022-09-24T10:19:57.067Z,17.37
2022-09-24T10:22:26.329Z,17.10
2022-09-24T10:24:55.964Z,16.88
2022-09-24T10:27:37.309Z,16.87
2022-09-24T10:30:34.578Z,16.66
2022-09-24T10:33:03.210Z,17.43
2022-09-24T10:35:31.537Z,18.88
2022-09-24T10:38:00.769Z,19.15
2022-09-24T10:40:31.276Z,18.27
2022-09-24T10:43:00.579Z,17.95
2022-09-24T10:45:42.274Z,18.32
2022-09-24T10:48:18.921Z,18.84
2022-09-24T10:51:11.731Z,18.84
2022-09-24T10:53:51.097Z,19.31
2022-09-24T10:56:47.342Z,20.21
2022-09-24T10:59:32.252Z,20.51
2022-09-24T11:02:13.795Z,20.58
2022-09-24T11:04:58.693Z,19.06
2022-09-24T11:07:40.242Z,19.89
2022-09-24T11:10:10.284Z,20.36
2022-09-24T11:12:55.550Z,19.95
2022-09-24T11:15:58.808Z,18.85
2022-09-24T11:19:15.081Z,18.85
2022-09-24T11:21:57.891Z,20.15
2022-09-24T11:24:43.017Z,19.35
2022-09-24T11:27:37.423Z,19.02
2022-09-24T11:30:21.802Z,19.37
2022-09-24T11:33:03.822Z,19.83
2022-09-24T11:35:50.681Z,19.27
2022-09-24T11:38:42.155Z,19.21
2022-09-24T11:41:14.558Z,19.74
2022-09-24T11:44:18.773Z,19.50
2022-09-24T11:46:53.857Z,19.18
2022-09-24T11:49:41.047Z,19.87
2022-09-24T11:52:24.270Z,19.55
2022-09-24T11:55:03.056Z,19.23
2022-09-24T11:57:37.490Z,19.57
2022-09-24T12:00:14.283Z,19.60
2022-09-24T12:02:50.215Z,18.62
2022-09-24T12:05:38.673Z,18.74
2022-09-24T12:08:13.638Z,18.99
2022-09-24T12:10:46.761Z,19.18
2022-09-24T12:13:28.338Z,19.25
2022-09-24T12:15:58.211Z,19.03
2022-09-24T12:18:33.129Z,18.88
2022-09-24T12:21:08.378Z,18.72
2022-09-24T12:23:39.775Z,19.12
2022-09-24T12:26:07.924Z,18.51
2022-09-24T12:29:07.333Z,18.94
2022-09-24T12:31:55.795Z,19.83
2022-09-24T12:34:28.266Z,19.14
2022-09-24T12:37:10.186Z,19.20
2022-09-24T12:39:48.777Z,19.75
2022-09-24T12:42:17.778Z,19.73
2022-09-24T12:44:58.425Z,18.72
2022-09-24T12:47:28.303Z,19.73
2022-09-24T12:49:58.503Z,19.87
2022-09-24T12:52:43.189Z,18.59
2022-09-24T12:55:22.193Z,18.47
2022-09-24T12:57:56.252Z,18.87
2022-09-24T13:00:31.994Z,18.54
2022-09-24T13:02:59.629Z,18.73
2022-09-24T13:05:45.930Z,18.48
2022-09-24T13:08:16.992Z,18.43
2022-09-24T13:11:07.015Z,18.53
2022-09-24T13:13:37.035Z,18.25
2022-09-24T13:16:06.940Z,18.60
2022-09-24T13:18:36.013Z,18.67
2022-09-24T13:21:19.885Z,19.02
2022-09-24T13:23:48.575Z,18.85
2022-09-24T13:26:24.299Z,18.48
2022-09-24T13:28:58.437Z,19.19
2022-09-24T13:31:28.063Z,19.44
2022-09-24T13:34:04.271Z,18.45
2022-09-24T13:36:41.634Z,18.88
2022-09-24T13:39:33.968Z,18.94
2022-09-24T13:42:16.722Z,18.83
2022-09-24T13:44:47.431Z,19.20
2022-09-24T13:47:45.402Z,18.62
2022-09-24T13:50:23.771Z,18.57
2022-09-24T13:53:07.661Z,19.07
2022-09-24T13:55:45.004Z,18.74
2022-09-24T13:58:31.783Z,18.87
2022-09-24T14:01:10.173Z,18.86
2022-09-24T14:03:39.838Z,18.41
2022-09-24T14:06:11.815Z,18.34
2022-09-24T14:08:42.466Z,18.42
2022-09-24T14:11:19.893Z,18.25
2022-09-24T14:13:46.792Z,18.52
2022-09-24T14:16:16.321Z,18.16
2022-09-24T14:18:43.024Z,18.46
2022-09-24T14:21:17.378Z,18.96
2022-09-24T14:23:56.070Z,18.64
2022-09-24T14:26:32.547Z,18.42
2022-09-24T14:29:03.593Z,18.25
2022-09-24T14:31:30.471Z,18.50
2022-09-24T14:34:01.451Z,18.40
2022-09-24T14:36:29.328Z,18.40
2022-09-24T14:39:02.487Z,18.58
2022-09-24T14:41:32.244Z,18.26
2022-09-24T14:44:14.444Z,18.20
2022-09-24T14:46:50.926Z,18.49
2022-09-24T14:49:20.038Z,18.53
2022-09-24T14:52:00.554Z,18.54
2022-09-24T14:54:40.557Z,18.40
2022-09-24T14:57:19.305Z,18.50
2022-09-24T14:59:47.247Z,18.32
2022-09-24T15:02:17.382Z,18.29
2022-09-24T15:04:53.040Z,17.93
2022-09-24T15:07:24.046Z,18.18
2022-09-24T15:09:53.176Z,18.11
2022-09-24T15:12:30.899Z,18.26
2022-09-24T15:15:01.790Z,18.40
2022-09-24T15:17:33.854Z,18.51
2022-09-24T15:20:01.364Z,18.43
2022-09-24T15:22:29.667Z,18.31
2022-09-24T15:25:01.539Z,18.25
2022-09-24T15:27:31.232Z,18.15
2022-09-24T15:30:00.002Z,18.18
2022-09-24T15:32:32.774Z,18.20
2022-09-24T15:34:59.981Z,18.14
2022-09-24T15:37:28.858Z,17.98
2022-09-24T15:40:23.015Z,18.13
2022-09-24T15:42:50.518Z,18.21
2022-09-24T15:45:22.894Z,18.08
2022-09-24T15:47:50.495Z,17.81
2022-09-24T15:50:17.952Z,17.41
2022-09-24T15:52:54.709Z,17.39
2022-09-24T15:55:22.125Z,17.27
2022-09-24T15:57:48.692Z,17.36
2022-09-24T16:00:20.522Z,17.09
2022-09-24T16:02:50.283Z,17.15
2022-09-24T16:05:17.335Z,17.18
2022-09-24T16:07:44.060Z,16.74
2022-09-24T16:10:12.634Z,16.62
2022-09-24T16:12:40.732Z,16.51
2022-09-24T16:15:08.128Z,16.32
2022-09-24T16:17:34.654Z,16.34
2022-09-24T16:20:01.541Z,16.16
2022-09-24T16:22:28.070Z,15.73
2022-09-24T16:24:54.633Z,15.71
2022-09-24T16:27:21.257Z,15.75
2022-09-24T16:29:47.810Z,15.39
2022-09-24T16:32:14.587Z,15.24
2022-09-24T16:34:41.734Z,15.33
2022-09-24T16:37:09.188Z,14.98
2022-09-24T16:39:35.794Z,14.79
2022-09-24T16:42:02.410Z,14.64
2022-09-24T16:44:28.990Z,14.54
2022-09-24T16:46:55.752Z,14.31
2022-09-24T16:49:23.770Z,14.50
2022-09-24T16:51:50.371Z,14.39
2022-09-24T16:54:18.995Z,14.23
2022-09-24T16:56:49.322Z,14.15
2022-09-24T16:59:16.684Z,14.14
2022-09-24T17:01:43.383Z,14.08
2022-09-24T17:04:10.023Z,14.10
2022-09-24T17:06:36.803Z,14.15
2022-09-24T17:09:22.759Z,14.34
2022-09-24T17:11:49.491Z,14.12
2022-09-24T17:14:17.485Z,14.14
2022-09-24T17:16:44.496Z,14.02
2022-09-24T17:19:12.294Z,14.04
2022-09-24T17:21:40.486Z,14.07
2022-09-24T17:24:07.416Z,14.06
2022-09-24T17:26:34.668Z,14.06
2022-09-24T17:29:01.582Z,14.05
2022-09-24T17:31:28.405Z,14.03
2022-09-24T17:33:56.301Z,14.09
2022-09-24T17:36:23.545Z,14.15
2022-09-24T17:38:51.907Z,14.09
2022-09-24T17:41:19.289Z,14.09
2022-09-24T17:43:45.982Z,14.01
2022-09-24T17:46:18.379Z,14.01
2022-09-24T17:48:47.221Z,14.14
2022-09-24T17:51:20.139Z,14.12
2022-09-24T17:53:47.000Z,14.04
2022-09-24T17:56:14.731Z,14.07
2022-09-24T17:58:44.378Z,14.05
2022-09-24T18:01:14.117Z,14.00
2022-09-24T18:03:41.443Z,14.06
2022-09-24T18:06:11.607Z,14.05
2022-09-24T18:08:40.341Z,13.82
2022-09-24T18:11:12.972Z,13.64
2022-09-24T18:13:40.258Z,13.43
2022-09-24T18:16:13.059Z,13.39
2022-09-24T18:18:40.482Z,13.43
2022-09-24T18:21:10.067Z,13.45
2022-09-24T18:23:37.345Z,13.52
2022-09-24T18:26:16.027Z,13.55
2022-09-24T18:28:48.681Z,13.55
2022-09-24T18:31:15.981Z,13.44
2022-09-24T18:33:44.209Z,13.46
2022-09-24T18:36:16.046Z,13.46
2022-09-24T18:38:44.556Z,13.44
2022-09-24T18:41:13.128Z,13.38
2022-09-24T18:43:40.182Z,13.34
2022-09-24T18:46:11.347Z,13.33
2022-09-24T18:48:40.151Z,13.31
2022-09-24T18:51:08.247Z,13.31
2022-09-24T18:53:35.493Z,13.36
2022-09-24T18:56:06.718Z,13.31
2022-09-24T18:58:33.495Z,13.31
2022-09-24T19:01:01.923Z,13.28
2022-09-24T19:03:30.113Z,13.27
2022-09-24T19:06:05.058Z,13.28
2022-09-24T19:08:32.315Z,13.28
2022-09-24T19:11:06.141Z,13.23
2022-09-24T19:13:32.829Z,13.23
2022-09-24T19:16:07.255Z,13.15
2022-09-24T19:18:35.636Z,13.10
2022-09-24T19:21:06.482Z,13.04
2022-09-24T19:23:41.177Z,13.09
2022-09-24T19:26:09.871Z,13.14
2022-09-24T19:28:40.895Z,13.15
2022-09-24T19:31:16.555Z,13.13
2022-09-24T19:33:44.275Z,13.13
2022-09-24T19:36:11.320Z,13.29
2022-09-24T19:38:41.777Z,13.30
2022-09-24T19:41:13.436Z,13.24
2022-09-24T19:43:43.739Z,13.23
2022-09-24T19:46:17.170Z,13.27
2022-09-24T19:48:45.918Z,13.19
2022-09-24T19:51:21.311Z,13.22
2022-09-24T19:53:52.839Z,13.19
2022-09-24T19:56:22.421Z,13.27
2022-09-24T19:58:55.257Z,13.29
2022-09-24T20:01:24.303Z,13.30
2022-09-24T20:03:51.498Z,13.19
2022-09-24T20:06:23.635Z,13.15
2022-09-24T20:08:50.337Z,13.09
2022-09-24T20:11:20.847Z,12.95
2022-09-24T20:13:48.670Z,12.89
2022-09-24T20:16:19.353Z,12.93
2022-09-24T20:18:51.021Z,12.94
2022-09-24T20:21:19.067Z,12.93
2022-09-24T20:23:47.414Z,12.97
2022-09-24T20:26:34.890Z,12.93
2022-09-24T20:29:02.297Z,12.92
2022-09-24T20:31:30.046Z,12.92
2022-09-24T20:33:57.118Z,12.95
2022-09-24T20:36:24.942Z,12.91
2022-09-24T20:38:52.357Z,12.86
2022-09-24T20:41:22.820Z,12.84
2022-09-24T20:43:49.962Z,12.81
2022-09-24T20:46:22.020Z,12.85
2022-09-24T20:48:48.921Z,12.86
2022-09-24T20:51:18.334Z,12.86
2022-09-24T20:53:46.330Z,12.92
2022-09-24T20:56:13.707Z,12.87
2022-09-24T20:58:41.429Z,12.83
2022-09-24T21:01:09.242Z,12.87
2022-09-24T21:03:46.031Z,12.81
2022-09-24T21:06:15.174Z,12.78
2022-09-24T21:08:43.877Z,12.75
2022-09-24T21:11:13.060Z,12.63
2022-09-24T21:13:42.080Z,12.60
2022-09-24T21:16:09.655Z,12.57
2022-09-24T21:18:41.264Z,12.56
2022-09-24T21:21:15.433Z,12.48
2022-09-24T21:23:47.273Z,12.48
2022-09-24T21:26:25.404Z,12.50
2022-09-24T21:28:54.005Z,12.46
2022-09-24T21:31:22.966Z,12.51
2022-09-24T21:33:54.596Z,12.55
2022-09-24T21:36:24.287Z,12.69
2022-09-24T21:38:55.669Z,12.61
2022-09-24T21:41:31.238Z,12.51
2022-09-24T21:43:58.060Z,12.57
2022-09-24T21:46:26.663Z,12.69
2022-09-24T21:48:54.961Z,12.78
2022-09-24T21:51:22.255Z,12.80
2022-09-24T21:53:49.273Z,12.82
2022-09-24T21:56:18.800Z,12.68
2022-09-24T21:58:46.483Z,12.68
2022-09-24T22:01:18.380Z,12.55
2022-09-24T22:03:48.191Z,12.56
2022-09-24T22:06:15.318Z,12.59
2022-09-24T22:08:43.220Z,12.59
2022-09-24T22:11:11.860Z,12.71
2022-09-24T22:13:39.443Z,12.78
2022-09-24T22:16:11.033Z,12.85
2022-09-24T22:18:38.681Z,12.86
2022-09-24T22:21:10.498Z,12.83
2022-09-24T22:23:37.694Z,12.79
2022-09-24T22:26:05.576Z,12.75
2022-09-24T22:28:32.685Z,12.76
2022-09-24T22:31:05.117Z,12.75
2022-09-24T22:33:50.873Z,12.72
2022-09-24T22:36:17.463Z,12.66
2022-09-24T22:38:43.975Z,12.61
2022-09-24T22:41:12.202Z,12.64
2022-09-24T22:43:39.656Z,12.67
2022-09-24T22:46:09.884Z,12.67
2022-09-24T22:48:37.129Z,12.63
2022-09-24T22:51:04.900Z,12.58
2022-09-24T22:53:36.464Z,12.56
2022-09-24T22:56:10.670Z,12.63
2022-09-24T22:58:39.992Z,12.69
2022-09-24T23:01:10.936Z,12.76
2022-09-24T23:03:38.332Z,12.81
2022-09-24T23:06:06.456Z,12.87
2022-09-24T23:08:34.705Z,12.89
2022-09-24T23:11:17.898Z,12.90
2022-09-24T23:13:46.556Z,12.87
2022-09-24T23:16:17.657Z,12.87
2022-09-24T23:18:48.743Z,12.82
2022-09-24T23:21:17.340Z,12.82
2022-09-24T23:23:44.536Z,12.81
2022-09-24T23:26:17.241Z,12.81
2022-09-24T23:28:46.916Z,12.83
2022-09-24T23:31:14.865Z,12.87
2022-09-24T23:33:42.353Z,12.86
2022-09-24T23:36:11.291Z,12.82
2022-09-24T23:38:38.114Z,12.68
2022-09-24T23:41:05.433Z,12.73
2022-09-24T23:43:33.318Z,12.69
2022-09-24T23:46:00.309Z,12.63
2022-09-24T23:48:28.042Z,12.60
2022-09-24T23:50:55.244Z,12.60
2022-09-24T23:53:22.113Z,12.59
2022-09-24T23:55:49.514Z,12.60
2022-09-24T23:58:18.159Z,12.57
